Time;durP1;ratioP1;P1;durP2;ratioP2;P2;SDS_P1;SDS_P2;PMS_P1;PMS_P2;Temp;Humidity;BMP_temperature;BMP_pressure;BME280_temperature;BME280_humidity;BME280_pressure;Samples;Min_cycle;Max_cycle;Signal;HPM_P1;HPM_P2
2022/06/30 00:00:29;;;;;;;5.80;4.73;;;24.70;99.90;;;;;;5014487;28;20463;-67
2022/06/30 00:02:54;;;;;;;5.53;5.03;;;24.70;99.90;;;;;;5011633;28;20188;-67
2022/06/30 00:05:20;;;;;;;8.03;5.30;;;24.70;99.90;;;;;;5015195;28;20180;-67
2022/06/30 00:07:45;;;;;;;5.50;5.00;;;24.70;99.90;;;;;;5013104;28;20193;-67
2022/06/30 00:10:11;;;;;;;7.53;4.77;;;24.70;99.90;;;;;;5012109;28;20209;-67
2022/06/30 00:12:38;;;;;;;9.07;5.87;;;24.70;99.90;;;;;;5012096;28;20558;-67
2022/06/30 00:15:05;;;;;;;6.00;5.40;;;24.70;99.90;;;;;;5011644;28;20440;-67
2022/06/30 00:17:30;;;;;;;6.37;5.77;;;24.70;99.90;;;;;;5013278;28;20520;-68
2022/06/30 00:19:56;;;;;;;6.57;5.40;;;24.70;99.90;;;;;;5015242;28;20538;-67
2022/06/30 00:22:21;;;;;;;5.60;5.10;;;24.60;99.90;;;;;;5012544;28;20188;-67
2022/06/30 00:24:47;;;;;;;5.63;5.13;;;24.60;99.90;;;;;;5012585;28;20189;-67
2022/06/30 00:27:13;;;;;;;5.43;4.93;;;24.60;99.90;;;;;;5013776;28;20696;-67
2022/06/30 00:29:39;;;;;;;9.73;5.13;;;24.60;99.90;;;;;;4995579;28;20570;-67
2022/06/30 00:32:05;;;;;;;5.93;4.87;;;24.50;99.90;;;;;;5010779;28;20574;-67
2022/06/30 00:34:30;;;;;;;6.20;5.40;;;24.50;99.90;;;;;;5000359;28;20704;-67
2022/06/30 00:36:56;;;;;;;6.87;5.40;;;24.50;99.90;;;;;;5012194;28;20521;-67
2022/06/30 00:39:22;;;;;;;5.50;5.00;;;24.50;99.90;;;;;;5013513;28;20274;-67
2022/06/30 00:41:47;;;;;;;4.97;4.57;;;24.50;99.90;;;;;;5014835;28;20196;-67
2022/06/30 00:44:13;;;;;;;6.00;5.30;;;24.50;99.90;;;;;;5014007;28;20883;-67
2022/06/30 00:46:40;;;;;;;5.10;4.60;;;24.50;99.90;;;;;;5015754;28;20181;-67
2022/06/30 00:49:06;;;;;;;5.33;4.77;;;24.50;99.90;;;;;;5011085;28;20222;-67
2022/06/30 00:51:32;;;;;;;5.90;4.80;;;24.50;99.90;;;;;;5010536;28;20645;-67
2022/06/30 00:54:00;;;;;;;6.33;4.70;;;24.40;99.90;;;;;;5007844;28;20447;-67
2022/06/30 00:56:27;;;;;;;6.87;5.03;;;24.40;99.90;;;;;;5011556;28;20189;-67
2022/06/30 00:58:55;;;;;;;7.73;4.87;;;24.40;99.90;;;;;;5012770;28;20452;-67
2022/06/30 01:01:23;;;;;;;5.90;5.07;;;24.40;99.90;;;;;;5013485;28;20450;-67
2022/06/30 01:03:50;;;;;;;7.00;4.73;;;24.30;99.90;;;;;;5015178;28;20456;-67
2022/06/30 01:06:17;;;;;;;6.70;5.00;;;24.30;99.90;;;;;;5006265;28;20534;-67
2022/06/30 01:08:43;;;;;;;8.73;5.37;;;24.30;99.90;;;;;;5014763;28;21133;-67
2022/06/30 01:13:53;;;;;;;5.00;4.60;;;24.20;99.90;;;;;;5009724;28;20862;-67
2022/06/30 01:16:21;;;;;;;7.83;5.03;;;24.10;99.90;;;;;;5013432;28;20436;-67
2022/06/30 01:18:47;;;;;;;5.20;4.40;;;24.10;99.90;;;;;;5009670;28;20475;-67
2022/06/30 01:21:13;;;;;;;5.37;4.87;;;24.00;99.90;;;;;;5015122;28;20553;-67
2022/06/30 01:23:38;;;;;;;5.10;4.50;;;24.00;99.90;;;;;;5010619;28;20879;-67
2022/06/30 01:26:04;;;;;;;7.53;4.33;;;24.00;99.90;;;;;;5014344;28;20955;-67
2022/06/30 01:28:29;;;;;;;7.33;4.50;;;24.00;99.90;;;;;;5010279;28;20621;-67
2022/06/30 01:30:56;;;;;;;6.67;4.57;;;23.90;99.90;;;;;;5013465;28;20221;-67
2022/06/30 01:33:22;;;;;;;6.43;4.63;;;23.90;99.90;;;;;;5010103;28;20189;-67
2022/06/30 01:35:48;;;;;;;6.10;5.60;;;23.90;99.90;;;;;;5017466;28;20535;-67
2022/06/30 01:38:13;;;;;;;5.20;4.70;;;23.90;99.90;;;;;;5015950;28;20575;-67
2022/06/30 01:40:39;;;;;;;4.83;4.43;;;23.90;99.90;;;;;;5015551;28;20258;-67
2022/06/30 01:43:06;;;;;;;5.80;5.00;;;23.90;99.90;;;;;;5014853;28;20187;-67
2022/06/30 01:45:33;;;;;;;6.60;5.07;;;23.90;99.90;;;;;;5013480;28;20195;-67
2022/06/30 01:47:59;;;;;;;5.40;4.90;;;23.80;99.90;;;;;;5015675;28;20598;-67
2022/06/30 01:50:27;;;;;;;5.63;5.13;;;23.80;99.90;;;;;;5015623;28;20503;-68
2022/06/30 01:52:53;;;;;;;7.60;5.33;;;23.80;99.90;;;;;;5014043;28;20511;-68
2022/06/30 01:55:19;;;;;;;5.30;4.80;;;23.80;99.90;;;;;;5017435;28;20442;-68
2022/06/30 01:57:45;;;;;;;5.20;4.70;;;23.70;99.90;;;;;;5013633;28;20475;-67
2022/06/30 02:00:17;;;;;;;6.83;5.67;;;23.70;99.90;;;;;;5019901;28;21066;-68
2022/06/30 02:02:43;;;;;;;8.80;5.07;;;23.70;99.90;;;;;;5016398;28;20601;-67
2022/06/30 02:05:10;;;;;;;5.10;4.70;;;23.70;99.90;;;;;;5015482;28;20435;-68
2022/06/30 02:07:36;;;;;;;8.50;5.40;;;23.70;99.90;;;;;;5010685;28;20538;-68
2022/06/30 02:10:08;;;;;;;5.70;5.17;;;23.70;99.90;;;;;;5017560;28;20476;-67
2022/06/30 02:12:46;;;;;;;6.73;6.13;;;23.50;99.90;;;;;;5015165;28;20882;-68
2022/06/30 02:15:27;;;;;;;6.43;5.50;;;23.40;99.90;;;;;;5010822;28;20439;-67
2022/06/30 02:17:54;;;;;;;7.30;4.97;;;23.50;99.90;;;;;;5015030;28;20894;-67
2022/06/30 02:20:23;;;;;;;5.57;4.57;;;23.50;99.90;;;;;;5013115;28;20539;-67
2022/06/30 02:22:50;;;;;;;7.93;5.63;;;23.40;99.90;;;;;;5011564;28;20793;-67
2022/06/30 02:25:16;;;;;;;6.23;5.63;;;23.40;99.90;;;;;;5018245;28;20430;-68
2022/06/30 02:27:42;;;;;;;5.77;5.13;;;23.40;99.90;;;;;;5016140;28;20439;-68
2022/06/30 02:30:08;;;;;;;5.73;5.13;;;23.40;99.90;;;;;;5011668;28;20801;-67
2022/06/30 02:32:34;;;;;;;6.00;4.80;;;23.40;99.90;;;;;;5018071;28;20185;-67
2022/06/30 02:35:00;;;;;;;6.77;5.30;;;23.40;99.90;;;;;;5016280;28;20436;-67
2022/06/30 02:37:26;;;;;;;6.30;5.70;;;23.30;99.90;;;;;;5016627;28;20509;-67
2022/06/30 02:39:51;;;;;;;5.53;5.03;;;23.30;99.90;;;;;;5011669;28;20216;-67
2022/06/30 02:42:18;;;;;;;8.67;6.00;;;23.40;99.90;;;;;;5017092;28;20188;-67
2022/06/30 02:44:43;;;;;;;7.90;5.77;;;23.30;99.90;;;;;;5016738;28;20608;-67
2022/06/30 02:47:09;;;;;;;9.43;6.37;;;23.30;99.90;;;;;;5016828;28;20978;-67
2022/06/30 02:49:37;;;;;;;10.00;6.00;;;23.20;99.90;;;;;;5011816;28;20274;-67
2022/06/30 02:52:03;;;;;;;7.13;6.40;;;23.10;99.90;;;;;;5016360;28;20650;-67
2022/06/30 02:54:28;;;;;;;8.23;7.00;;;23.00;99.90;;;;;;5012532;28;20435;-68
2022/06/30 02:56:54;;;;;;;6.20;5.60;;;22.80;99.90;;;;;;5013136;28;20534;-67
2022/06/30 02:59:19;;;;;;;7.33;5.83;;;22.70;99.90;;;;;;5012701;28;20610;-66
2022/06/30 03:01:45;;;;;;;7.83;5.00;;;22.60;99.90;;;;;;5010958;28;20178;-66
2022/06/30 03:04:11;;;;;;;6.50;5.80;;;22.50;99.90;;;;;;5014973;28;20181;-67
2022/06/30 03:06:36;;;;;;;5.57;4.87;;;22.50;99.90;;;;;;5018314;28;20188;-67
2022/06/30 03:09:03;;;;;;;6.10;4.90;;;22.40;99.90;;;;;;5014345;28;20206;-67
2022/06/30 03:11:29;;;;;;;5.53;4.50;;;22.40;99.90;;;;;;5011302;28;20715;-66
2022/06/30 03:13:54;;;;;;;6.70;5.17;;;22.40;99.90;;;;;;5012136;28;20444;-67
2022/06/30 03:16:20;;;;;;;7.93;5.27;;;22.30;99.90;;;;;;5018109;28;20432;-67
2022/06/30 03:18:46;;;;;;;6.53;4.80;;;22.40;99.90;;;;;;5015219;28;20199;-67
2022/06/30 03:21:12;;;;;;;8.80;5.80;;;22.50;99.90;;;;;;5013997;28;21716;-67
2022/06/30 03:23:38;;;;;;;8.07;5.47;;;22.60;99.90;;;;;;5011660;28;20427;-67
2022/06/30 03:26:04;;;;;;;6.00;5.40;;;22.60;99.90;;;;;;5012244;28;20204;-67
2022/06/30 03:28:31;;;;;;;6.93;5.77;;;22.60;99.90;;;;;;5015850;28;20435;-67
2022/06/30 03:30:56;;;;;;;6.30;5.70;;;22.60;99.90;;;;;;5014912;28;20555;-67
2022/06/30 03:33:22;;;;;;;5.93;5.40;;;22.60;99.90;;;;;;5010613;28;20894;-68
2022/06/30 03:35:48;;;;;;;5.47;4.97;;;22.50;99.90;;;;;;5014361;28;20684;-67
2022/06/30 03:38:14;;;;;;;5.70;5.20;;;22.60;99.90;;;;;;5011247;28;20589;-67
2022/06/30 03:40:41;;;;;;;5.63;4.97;;;22.60;99.90;;;;;;5010463;28;20232;-68
2022/06/30 03:43:07;;;;;;;5.87;5.00;;;22.60;99.90;;;;;;5011752;28;20439;-68
2022/06/30 03:45:33;;;;;;;6.30;5.67;;;22.60;99.90;;;;;;4993117;28;20806;-67
2022/06/30 03:48:04;;;;;;;6.23;5.07;;;22.70;99.90;;;;;;5012605;28;20263;-67
2022/06/30 03:50:30;;;;;;;6.27;5.40;;;22.60;99.90;;;;;;5014412;28;20482;-67
2022/06/30 03:52:57;;;;;;;6.03;5.27;;;22.60;99.90;;;;;;5011259;28;20804;-67
2022/06/30 03:55:23;;;;;;;8.33;5.77;;;22.60;99.90;;;;;;5016667;28;20529;-67
2022/06/30 03:57:49;;;;;;;5.73;5.23;;;22.60;99.90;;;;;;5011199;28;20462;-68
2022/06/30 04:00:15;;;;;;;5.60;5.10;;;22.60;99.90;;;;;;5011970;28;20451;-67
2022/06/30 04:02:41;;;;;;;6.83;6.10;;;22.60;99.90;;;;;;5014615;28;20191;-67
2022/06/30 04:05:07;;;;;;;6.23;5.20;;;22.60;99.90;;;;;;5015995;28;20427;-68
2022/06/30 04:07:38;;;;;;;5.97;5.10;;;22.50;99.90;;;;;;5013558;28;20177;-67
2022/06/30 04:10:04;;;;;;;10.20;5.77;;;22.40;99.90;;;;;;5014037;28;20848;-68
2022/06/30 04:12:29;;;;;;;5.53;4.93;;;22.50;99.90;;;;;;5014307;28;20427;-68
2022/06/30 04:14:55;;;;;;;6.40;5.80;;;22.50;99.90;;;;;;5015035;28;20490;-68
2022/06/30 04:17:20;;;;;;;6.30;5.70;;;22.50;99.90;;;;;;5016166;28;20219;-67
2022/06/30 04:19:46;;;;;;;5.87;5.27;;;22.50;99.90;;;;;;5013074;28;20680;-68
2022/06/30 04:22:11;;;;;;;6.00;5.43;;;22.60;99.90;;;;;;5009791;28;20228;-68
2022/06/30 04:24:37;;;;;;;6.73;5.60;;;22.50;99.90;;;;;;5013004;28;20189;-68
2022/06/30 04:27:03;;;;;;;5.53;5.03;;;22.40;99.90;;;;;;5012568;28;20275;-68
2022/06/30 04:29:28;;;;;;;6.10;5.50;;;22.30;99.90;;;;;;5012750;28;20287;-68
2022/06/30 04:34:38;;;;;;;5.77;5.27;;;22.20;99.90;;;;;;5012480;28;20211;-68
2022/06/30 04:37:04;;;;;;;11.30;6.10;;;22.30;99.90;;;;;;5013590;28;21841;-68
2022/06/30 04:39:29;;;;;;;6.53;5.80;;;22.40;99.90;;;;;;5014936;28;20246;-68
2022/06/30 04:41:55;;;;;;;7.57;5.57;;;22.40;99.90;;;;;;5008139;28;20223;-68
2022/06/30 04:44:20;;;;;;;5.97;5.37;;;22.30;99.90;;;;;;5014654;28;20189;-67
2022/06/30 04:46:46;;;;;;;6.73;5.07;;;22.30;99.90;;;;;;5012785;28;20188;-67
2022/06/30 04:49:12;;;;;;;5.70;5.13;;;22.30;99.90;;;;;;5011558;28;20772;-68
2022/06/30 04:51:38;;;;;;;5.83;5.33;;;22.40;99.90;;;;;;5016831;28;20308;-68
2022/06/30 04:54:04;;;;;;;6.17;5.57;;;22.30;99.90;;;;;;5011655;28;21015;-67
2022/06/30 04:56:31;;;;;;;8.77;5.87;;;22.40;99.90;;;;;;5012443;28;20683;-66
2022/06/30 04:58:57;;;;;;;8.90;7.70;;;22.40;99.90;;;;;;5012917;28;20216;-69
2022/06/30 05:01:22;;;;;;;7.07;6.37;;;22.50;99.90;;;;;;5012447;28;20424;-67
2022/06/30 05:03:48;;;;;;;7.40;5.33;;;22.50;99.90;;;;;;5010674;28;20447;-68
2022/06/30 05:06:14;;;;;;;7.63;6.50;;;22.60;99.90;;;;;;5008390;28;20279;-68
2022/06/30 05:08:39;;;;;;;10.73;6.77;;;22.60;99.90;;;;;;5008929;28;20305;-67
2022/06/30 05:11:05;;;;;;;9.87;8.57;;;22.60;99.90;;;;;;5016215;28;20189;-67
2022/06/30 05:13:31;;;;;;;11.80;8.90;;;22.60;99.90;;;;;;5014945;28;20839;-67
2022/06/30 05:15:56;;;;;;;6.93;6.23;;;22.60;99.90;;;;;;5017405;28;20196;-69
2022/06/30 05:18:24;;;;;;;6.17;5.57;;;22.60;99.90;;;;;;5019654;28;20239;-69
2022/06/30 05:20:50;;;;;;;6.00;5.40;;;22.60;99.90;;;;;;5016611;28;20644;-68
2022/06/30 05:23:15;;;;;;;7.43;5.00;;;22.70;99.90;;;;;;5013508;28;20474;-68
2022/06/30 05:28:25;;;;;;;8.37;5.07;;;22.70;99.90;;;;;;5018082;28;20323;-67
2022/06/30 05:30:51;;;;;;;7.50;4.90;;;22.60;99.90;;;;;;5013214;28;21121;-67
2022/06/30 05:33:19;;;;;;;8.50;4.90;;;22.70;99.90;;;;;;5013379;28;20197;-68
2022/06/30 05:35:47;;;;;;;6.57;4.90;;;22.70;99.90;;;;;;5014607;28;20453;-67
2022/06/30 05:38:13;;;;;;;5.97;5.37;;;22.80;99.90;;;;;;5015092;28;20481;-68
2022/06/30 05:40:39;;;;;;;5.83;5.33;;;22.80;99.90;;;;;;5011075;28;20506;-67
2022/06/30 05:43:05;;;;;;;6.67;5.00;;;22.90;99.90;;;;;;5011712;28;20463;-66
2022/06/30 05:45:30;;;;;;;6.13;5.27;;;22.90;99.90;;;;;;5010366;28;20726;-67
2022/06/30 05:47:56;;;;;;;6.77;5.70;;;23.00;99.90;;;;;;5011740;28;20955;-68
2022/06/30 05:50:22;;;;;;;5.80;5.30;;;23.00;99.90;;;;;;5013552;28;20212;-67
2022/06/30 05:52:50;;;;;;;6.20;5.20;;;23.10;99.90;;;;;;5018236;28;20189;-67
2022/06/30 05:55:16;;;;;;;11.37;5.83;;;23.10;99.90;;;;;;5014512;28;20443;-67
2022/06/30 05:57:52;;;;;;;8.97;6.07;;;23.20;99.90;;;;;;5009869;28;20490;-69
2022/06/30 06:00:23;;;;;;;5.53;5.03;;;23.20;99.90;;;;;;5011469;28;20861;-69
2022/06/30 06:02:49;;;;;;;9.63;5.80;;;23.30;99.90;;;;;;5016870;28;20518;-68
2022/06/30 06:05:15;;;;;;;7.60;5.87;;;23.30;99.90;;;;;;5016766;28;20526;-69
2022/06/30 06:07:41;;;;;;;6.53;5.93;;;23.40;99.90;;;;;;5010794;28;20189;-68
2022/06/30 06:10:07;;;;;;;8.97;5.67;;;23.40;99.90;;;;;;5015774;28;20489;-68
2022/06/30 06:12:32;;;;;;;5.70;5.10;;;23.50;99.90;;;;;;5018575;28;20492;-68
2022/06/30 06:14:58;;;;;;;6.03;5.17;;;23.50;99.90;;;;;;5014664;28;20451;-68
2022/06/30 06:17:24;;;;;;;6.93;5.70;;;23.60;99.90;;;;;;5013233;28;20212;-67
2022/06/30 06:19:49;;;;;;;8.13;5.80;;;23.60;99.90;;;;;;5006458;28;20197;-67
2022/06/30 06:22:15;;;;;;;7.10;5.70;;;23.70;99.90;;;;;;5011781;28;20189;-67
2022/06/30 06:24:40;;;;;;;8.53;7.27;;;23.70;99.90;;;;;;5011117;28;20173;-67
2022/06/30 06:27:06;;;;;;;7.47;6.50;;;23.70;99.90;;;;;;5013948;28;20193;-67
2022/06/30 06:29:32;;;;;;;14.13;9.30;;;23.80;99.90;;;;;;5010045;28;20644;-68
2022/06/30 06:31:57;;;;;;;6.67;6.07;;;23.80;99.90;;;;;;5019665;28;20232;-67
2022/06/30 06:34:23;;;;;;;10.23;7.83;;;23.90;99.90;;;;;;5017229;28;20243;-66
2022/06/30 06:36:48;;;;;;;10.20;5.60;;;24.00;99.90;;;;;;5012415;28;20212;-66
2022/06/30 06:39:14;;;;;;;5.50;5.00;;;23.90;99.90;;;;;;5010028;28;20216;-67
2022/06/30 06:41:39;;;;;;;7.23;5.20;;;24.00;99.90;;;;;;5015470;28;20180;-65
2022/06/30 06:44:06;;;;;;;7.83;4.93;;;24.10;99.90;;;;;;5012849;28;20223;-66
2022/06/30 06:46:32;;;;;;;7.73;6.23;;;24.10;99.90;;;;;;5011603;28;20180;-66
2022/06/30 06:49:03;;;;;;;6.90;4.50;;;24.20;99.90;;;;;;5014486;28;20530;-67
2022/06/30 06:51:29;;;;;;;6.17;5.33;;;24.30;99.90;;;;;;5015941;28;20447;-67
2022/06/30 06:53:55;;;;;;;8.37;7.47;;;24.30;99.90;;;;;;5010660;28;20435;-67
2022/06/30 06:56:21;;;;;;;8.00;6.97;;;24.40;99.90;;;;;;5013162;28;20179;-68
2022/06/30 06:58:47;;;;;;;11.37;6.33;;;24.40;99.90;;;;;;5012684;28;20582;-67
2022/06/30 07:01:12;;;;;;;5.30;4.70;;;24.50;99.90;;;;;;5012075;28;20837;-67
2022/06/30 07:03:38;;;;;;;9.03;5.23;;;24.50;99.90;;;;;;5016090;28;20251;-67
2022/06/30 07:06:05;;;;;;;6.93;5.40;;;24.60;99.90;;;;;;5011419;28;20194;-67
2022/06/30 07:08:31;;;;;;;4.97;4.47;;;24.70;99.90;;;;;;5013690;28;20822;-68
2022/06/30 07:10:57;;;;;;;5.40;4.67;;;24.70;99.90;;;;;;5013174;28;20463;-68
2022/06/30 07:13:24;;;;;;;4.87;4.30;;;24.90;99.90;;;;;;5011980;28;20439;-67
2022/06/30 07:15:50;;;;;;;4.63;4.23;;;24.90;99.90;;;;;;5014230;28;20572;-67
2022/06/30 07:18:15;;;;;;;6.30;4.13;;;25.00;99.90;;;;;;5014664;28;20532;-67
2022/06/30 07:20:41;;;;;;;4.33;4.00;;;25.00;99.90;;;;;;5013868;28;20924;-66
2022/06/30 07:23:07;;;;;;;5.43;4.83;;;25.10;99.90;;;;;;5015026;28;20213;-67
2022/06/30 07:25:33;;;;;;;7.87;4.70;;;25.20;99.90;;;;;;5013272;28;20185;-67
2022/06/30 07:27:58;;;;;;;5.57;5.07;;;25.20;99.90;;;;;;5014214;28;20618;-67
2022/06/30 07:30:25;;;;;;;5.10;4.60;;;25.30;99.90;;;;;;5015144;28;20550;-66
2022/06/30 07:32:51;;;;;;;7.43;4.73;;;25.30;99.90;;;;;;5014760;28;20260;-67
2022/06/30 07:35:17;;;;;;;6.73;4.90;;;25.40;99.90;;;;;;5011669;28;20434;-67
2022/06/30 07:37:42;;;;;;;4.77;4.30;;;25.50;99.90;;;;;;5014549;28;20287;-67
2022/06/30 07:40:09;;;;;;;4.90;4.50;;;25.50;99.90;;;;;;5010795;28;20212;-66
2022/06/30 07:42:35;;;;;;;4.80;4.40;;;25.60;99.90;;;;;;5014335;28;20631;-66
2022/06/30 07:45:03;;;;;;;5.60;4.47;;;25.60;99.90;;;;;;5015057;28;20489;-67
2022/06/30 07:47:28;;;;;;;7.53;4.33;;;25.60;99.90;;;;;;5011204;28;20428;-66
2022/06/30 07:49:54;;;;;;;5.37;4.17;;;25.70;99.90;;;;;;5009193;28;20498;-65
2022/06/30 07:52:20;;;;;;;6.03;4.33;;;25.70;99.90;;;;;;5008508;28;20742;-67
2022/06/30 07:54:45;;;;;;;5.10;3.87;;;25.80;99.90;;;;;;4997477;28;20185;-65
2022/06/30 07:57:12;;;;;;;5.27;4.17;;;25.80;99.90;;;;;;5011202;28;20848;-67
2022/06/30 07:59:39;;;;;;;15.17;5.67;;;25.90;99.90;;;;;;4993077;28;20192;-66
2022/06/30 08:02:05;;;;;;;4.73;4.27;;;26.00;99.90;;;;;;5012586;28;20447;-66
2022/06/30 08:04:30;;;;;;;5.67;4.27;;;26.00;99.90;;;;;;5011128;28;20940;-66
2022/06/30 08:06:56;;;;;;;5.93;4.37;;;26.20;99.90;;;;;;5011581;28;20450;-66
2022/06/30 08:09:22;;;;;;;4.70;3.73;;;26.20;99.90;;;;;;5009374;28;20208;-66
2022/06/30 08:11:47;;;;;;;6.50;3.93;;;26.20;99.90;;;;;;5007995;28;20220;-66
2022/06/30 08:14:13;;;;;;;5.93;4.30;;;26.30;99.90;;;;;;5012154;28;20188;-67
2022/06/30 08:16:38;;;;;;;4.70;4.30;;;26.30;99.90;;;;;;5010541;28;20192;-65
2022/06/30 08:19:04;;;;;;;4.87;4.40;;;26.40;99.90;;;;;;5012610;28;20352;-65
2022/06/30 08:21:30;;;;;;;5.10;4.70;;;26.40;99.90;;;;;;5012531;28;20209;-64
2022/06/30 08:23:55;;;;;;;4.13;3.73;;;26.50;99.90;;;;;;5012519;28;20173;-66
2022/06/30 08:26:21;;;;;;;4.60;4.20;;;26.50;99.90;;;;;;5011523;28;20232;-65
2022/06/30 08:28:47;;;;;;;4.83;3.83;;;26.50;99.90;;;;;;4997632;28;20216;-66
2022/06/30 08:31:13;;;;;;;5.60;4.80;;;26.70;99.90;;;;;;5013080;28;20184;-66
2022/06/30 08:33:38;;;;;;;9.90;4.67;;;26.80;99.90;;;;;;5011106;28;20438;-65
2022/06/30 08:36:04;;;;;;;7.03;4.80;;;26.80;99.90;;;;;;5012773;28;20234;-65
2022/06/30 08:38:30;;;;;;;4.83;4.30;;;26.90;99.90;;;;;;5010364;28;20418;-66
2022/06/30 08:43:44;;;;;;;6.27;4.40;;;27.00;99.90;;;;;;5010799;28;20204;-65
2022/06/30 08:46:11;;;;;;;5.53;4.93;;;27.10;99.90;;;;;;5009995;28;20428;-65
2022/06/30 08:48:37;;;;;;;5.20;4.80;;;27.10;99.90;;;;;;4996790;28;20427;-66
2022/06/30 08:51:07;;;;;;;5.07;4.57;;;27.20;99.90;;;;;;5010099;28;20500;-65
2022/06/30 08:54:00;;;;;;;4.90;4.50;;;27.30;99.90;;;;;;5011707;28;20264;-65
2022/06/30 08:56:30;;;;;;;7.50;5.07;;;27.30;99.90;;;;;;5008604;28;20448;-65
2022/06/30 08:58:57;;;;;;;5.30;4.80;;;27.40;99.90;;;;;;5014553;28;20525;-66
2022/06/30 09:01:26;;;;;;;6.23;5.00;;;27.40;99.90;;;;;;5013618;28;20420;-66
2022/06/30 09:03:52;;;;;;;6.43;4.63;;;27.50;99.90;;;;;;5009565;28;20444;-66
2022/06/30 09:06:18;;;;;;;5.30;4.90;;;27.50;99.90;;;;;;5010445;28;20443;-67
2022/06/30 09:08:43;;;;;;;5.57;5.07;;;27.60;99.90;;;;;;5011953;28;20485;-66
2022/06/30 09:11:09;;;;;;;6.63;5.20;;;27.60;99.90;;;;;;5012911;28;20193;-67
2022/06/30 09:13:50;;;;;;;6.30;5.60;;;27.70;99.90;;;;;;5012153;28;20673;-66
2022/06/30 09:16:17;;;;;;;5.20;4.80;;;27.70;99.90;;;;;;5009197;28;20177;-66
2022/06/30 09:18:44;;;;;;;5.20;4.73;;;27.90;99.90;;;;;;5014945;28;21047;-65
2022/06/30 09:21:17;;;;;;;6.20;5.40;;;27.90;99.90;;;;;;5012513;28;20523;-65
2022/06/30 09:23:44;;;;;;;5.40;4.90;;;27.90;99.90;;;;;;5010168;28;21947;-66
2022/06/30 09:26:17;;;;;;;7.60;5.30;;;28.10;99.90;;;;;;5017005;28;20518;-64
2022/06/30 09:28:45;;;;;;;5.27;4.77;;;28.20;99.90;;;;;;5011711;28;20872;-65
2022/06/30 09:31:14;;;;;;;4.60;4.00;;;28.30;99.90;;;;;;5013350;28;20881;-66
2022/06/30 09:33:44;;;;;;;5.47;5.00;;;28.40;99.90;;;;;;5014721;28;20936;-66
2022/06/30 09:36:25;;;;;;;4.47;4.00;;;28.40;99.90;;;;;;5011602;28;21848;-64
2022/06/30 09:39:18;;;;;;;4.87;4.43;;;28.40;99.90;;;;;;5009101;28;20467;-67
2022/06/30 09:41:46;;;;;;;4.73;4.03;;;28.40;99.90;;;;;;5007667;28;20435;-67
2022/06/30 09:44:20;;;;;;;4.40;4.10;;;28.50;99.90;;;;;;5012519;28;20542;-67
2022/06/30 09:46:58;;;;;;;4.47;4.17;;;28.50;99.90;;;;;;5015369;28;20594;-67
2022/06/30 09:49:45;;;;;;;5.83;4.20;;;28.50;99.90;;;;;;5007753;28;21278;-67
2022/06/30 09:52:23;;;;;;;4.40;3.97;;;28.60;99.70;;;;;;5012013;28;20499;-67
2022/06/30 09:54:54;;;;;;;4.73;4.30;;;28.60;99.10;;;;;;5007758;28;20447;-66
2022/06/30 09:57:20;;;;;;;8.60;5.50;;;28.70;99.40;;;;;;5015435;28;20478;-67
2022/06/30 09:59:46;;;;;;;4.97;4.47;;;28.80;99.90;;;;;;5017347;28;20444;-66
2022/06/30 10:02:12;;;;;;;4.20;3.80;;;28.90;99.90;;;;;;5015080;28;20446;-67
2022/06/30 10:05:04;;;;;;;4.40;4.10;;;29.00;99.40;;;;;;5015743;28;20204;-66
2022/06/30 10:07:34;;;;;;;5.47;4.13;;;29.20;99.20;;;;;;5007496;28;20448;-66
2022/06/30 10:10:02;;;;;;;5.23;4.73;;;29.20;99.90;;;;;;5001202;28;20923;-66
2022/06/30 10:12:28;;;;;;;4.93;4.53;;;29.30;99.90;;;;;;5003560;28;20789;-67
2022/06/30 10:14:54;;;;;;;5.00;4.50;;;29.50;99.90;;;;;;5016150;28;20459;-67
2022/06/30 10:17:25;;;;;;;10.13;4.90;;;29.70;99.10;;;;;;5014343;28;20467;-66
2022/06/30 10:19:52;;;;;;;5.50;5.00;;;29.70;98.20;;;;;;5012832;28;20447;-66
2022/06/30 10:22:19;;;;;;;5.47;4.97;;;29.70;98.40;;;;;;5017774;28;20443;-66
2022/06/30 10:24:46;;;;;;;8.50;5.20;;;29.90;99.20;;;;;;5012775;28;20459;-66
2022/06/30 10:27:12;;;;;;;5.80;5.30;;;30.00;99.10;;;;;;5014623;28;20450;-67
2022/06/30 10:29:40;;;;;;;6.90;6.20;;;30.10;98.00;;;;;;5013672;28;20456;-67
2022/06/30 10:32:44;;;;;;;5.80;5.30;;;30.00;98.10;;;;;;5013937;28;20477;-67
2022/06/30 10:35:41;;;;;;;6.20;5.70;;;30.00;98.50;;;;;;5013262;28;20432;-67
2022/06/30 10:38:12;;;;;;;6.23;5.03;;;30.20;98.60;;;;;;5012109;28;20626;-66
2022/06/30 10:41:05;;;;;;;6.20;5.20;;;30.20;97.90;;;;;;5013050;28;20899;-66
2022/06/30 10:43:31;;;;;;;6.93;6.27;;;30.30;97.60;;;;;;5018714;28;20454;-67
2022/06/30 10:45:59;;;;;;;5.00;4.60;;;30.40;96.90;;;;;;5012497;28;20518;-66
2022/06/30 10:48:28;;;;;;;5.37;4.37;;;30.60;96.70;;;;;;5011864;28;20271;-66
2022/06/30 10:50:56;;;;;;;5.43;4.93;;;30.80;95.70;;;;;;5016214;28;20443;-66
2022/06/30 10:53:42;;;;;;;5.30;4.80;;;30.80;95.50;;;;;;5015232;28;20434;-66
2022/06/30 10:56:08;;;;;;;6.97;4.80;;;30.80;95.70;;;;;;5017047;28;20434;-66
2022/06/30 10:58:34;;;;;;;5.30;4.90;;;30.90;95.90;;;;;;5018889;28;20975;-66
2022/06/30 11:01:04;;;;;;;5.20;4.80;;;31.00;95.50;;;;;;5014142;28;20428;-67
2022/06/30 11:03:34;;;;;;;5.00;4.60;;;30.90;94.00;;;;;;5013089;28;20440;-66
2022/06/30 11:06:11;;;;;;;5.87;5.13;;;30.90;93.60;;;;;;5014707;28;20431;-66
2022/06/30 11:08:39;;;;;;;5.20;4.80;;;30.80;92.90;;;;;;5015178;28;20439;-66
2022/06/30 11:11:29;;;;;;;4.90;4.50;;;31.00;92.40;;;;;;5014032;28;20439;-66
2022/06/30 11:14:03;;;;;;;6.10;4.90;;;31.10;92.00;;;;;;5002637;28;20491;-67
2022/06/30 11:16:31;;;;;;;5.73;5.00;;;31.10;91.60;;;;;;5016199;28;21261;-67
2022/06/30 11:18:57;;;;;;;5.33;4.83;;;31.20;91.40;;;;;;5015354;28;20468;-67
2022/06/30 11:21:23;;;;;;;6.87;4.90;;;31.40;91.60;;;;;;5012735;28;20428;-67
2022/06/30 11:23:50;;;;;;;5.00;4.50;;;31.50;91.50;;;;;;5016393;28;20184;-66
2022/06/30 11:29:04;;;;;;;5.80;4.93;;;31.70;92.10;;;;;;5012741;28;20458;-67
2022/06/30 11:31:35;;;;;;;5.77;4.73;;;31.90;91.90;;;;;;5014112;28;20421;-67
2022/06/30 11:34:07;;;;;;;6.30;4.90;;;32.10;91.20;;;;;;5016654;28;20507;-67
2022/06/30 11:36:37;;;;;;;4.80;4.30;;;32.20;90.80;;;;;;5014260;28;21004;-67
2022/06/30 11:39:08;;;;;;;5.27;4.30;;;32.50;90.30;;;;;;5014326;28;20504;-66
2022/06/30 11:44:32;;;;;;;4.57;4.27;;;32.90;88.60;;;;;;5012018;28;20478;-66
2022/06/30 11:47:04;;;;;;;8.33;4.87;;;33.20;83.90;;;;;;5008721;28;20475;-66
2022/06/30 11:49:54;;;;;;;5.23;4.63;;;33.40;81.50;;;;;;5009506;28;21000;-66
2022/06/30 11:52:23;;;;;;;6.30;4.63;;;33.50;80.80;;;;;;5005138;28;20451;-67
2022/06/30 11:54:55;;;;;;;5.90;5.40;;;33.60;78.80;;;;;;5013331;28;20863;-67
2022/06/30 11:57:30;;;;;;;6.83;4.37;;;33.60;77.80;;;;;;5012395;28;20478;-66
2022/06/30 12:00:04;;;;;;;5.43;4.93;;;33.90;79.20;;;;;;5014732;28;20451;-67
2022/06/30 12:02:32;;;;;;;9.83;4.30;;;34.20;78.70;;;;;;5010356;28;20430;-67
2022/06/30 12:05:00;;;;;;;4.87;4.37;;;34.80;79.70;;;;;;5016904;28;20489;-67
2022/06/30 12:07:27;;;;;;;5.27;4.77;;;35.50;76.40;;;;;;5012125;28;20508;-66
2022/06/30 12:09:54;;;;;;;5.00;4.50;;;36.30;73.80;;;;;;5007599;28;20457;-66
2022/06/30 12:12:27;;;;;;;5.20;4.80;;;37.60;71.50;;;;;;5012009;28;20443;-66
2022/06/30 12:14:55;;;;;;;10.67;9.60;;;39.30;64.70;;;;;;5013450;28;20448;-66
2022/06/30 12:17:21;;;;;;;4.90;4.50;;;40.80;59.60;;;;;;5011275;28;20831;-66
2022/06/30 12:19:47;;;;;;;7.10;6.60;;;42.30;57.60;;;;;;5011155;28;20422;-67
2022/06/30 12:22:15;;;;;;;7.67;7.10;;;43.40;53.20;;;;;;5010703;28;20173;-68
2022/06/30 12:24:43;;;;;;;5.37;4.90;;;44.20;51.20;;;;;;5011472;28;20788;-69
2022/06/30 12:27:33;;;;;;;5.50;5.00;;;45.00;47.80;;;;;;5010918;28;20418;-69
2022/06/30 12:30:02;;;;;;;7.93;5.03;;;45.80;46.00;;;;;;5012944;28;20467;-68
2022/06/30 12:32:29;;;;;;;5.30;3.97;;;46.50;44.90;;;;;;5015716;28;20411;-67
2022/06/30 12:35:00;;;;;;;4.33;4.03;;;46.90;41.80;;;;;;4996570;28;20518;-67
2022/06/30 12:37:36;;;;;;;4.63;4.23;;;46.80;40.80;;;;;;5010442;28;20463;-66
2022/06/30 12:40:11;;;;;;;6.63;6.10;;;47.00;39.70;;;;;;5013400;28;20454;-68
2022/06/30 12:42:53;;;;;;;5.63;4.90;;;47.10;39.90;;;;;;5013624;28;20795;-68
2022/06/30 12:45:44;;;;;;;6.30;4.60;;;47.00;39.70;;;;;;5015754;28;20415;-67
2022/06/30 12:48:11;;;;;;;5.30;4.90;;;47.10;39.00;;;;;;5011899;28;20191;-67
2022/06/30 12:50:42;;;;;;;6.50;5.23;;;47.20;38.70;;;;;;5011192;28;20477;-67
2022/06/30 12:53:23;;;;;;;4.70;4.30;;;47.40;38.10;;;;;;5013467;28;20259;-68
2022/06/30 12:56:00;;;;;;;5.40;5.00;;;47.40;37.50;;;;;;5000195;28;21992;-67
2022/06/30 12:58:26;;;;;;;5.23;4.57;;;46.20;37.60;;;;;;5012262;28;20478;-67
2022/06/30 13:01:01;;;;;;;5.50;4.47;;;45.20;39.20;;;;;;5022972;28;20940;-66
2022/06/30 13:03:27;;;;;;;4.57;4.17;;;45.40;39.50;;;;;;5010741;28;20187;-67
2022/06/30 13:05:52;;;;;;;4.70;4.20;;;45.70;39.30;;;;;;5012753;28;20422;-67